createdAt,value
2024-02-20T00:00:32.418Z,0.00
2024-02-20T00:01:32.736Z,0.00
2024-02-20T00:02:32.396Z,0.00
2024-02-20T00:03:32.408Z,0.00
2024-02-20T00:04:32.443Z,0.00
2024-02-20T00:05:32.544Z,0.00
2024-02-20T00:06:32.386Z,0.00
2024-02-20T00:07:32.376Z,0.00
2024-02-20T00:08:32.357Z,0.00
2024-02-20T00:09:32.403Z,0.00
2024-02-20T00:10:32.347Z,0.00
2024-02-20T00:11:32.425Z,0.00
2024-02-20T00:12:32.341Z,0.00
2024-02-20T00:13:32.473Z,0.00
2024-02-20T00:14:32.270Z,0.00
2024-02-20T00:15:32.274Z,0.00
2024-02-20T00:16:32.404Z,0.00
2024-02-20T00:17:32.283Z,0.00
2024-02-20T00:18:32.332Z,0.00
2024-02-20T00:19:32.315Z,0.00
2024-02-20T00:20:32.287Z,0.00
2024-02-20T00:21:32.230Z,0.00
2024-02-20T00:22:32.255Z,0.00
2024-02-20T00:23:32.195Z,0.00
2024-02-20T00:24:32.207Z,0.00
2024-02-20T00:25:32.244Z,0.00
2024-02-20T00:26:32.152Z,0.00
2024-02-20T00:27:32.152Z,0.00
2024-02-20T00:28:32.185Z,0.00
2024-02-20T00:29:32.117Z,0.00
2024-02-20T00:30:32.119Z,0.00
2024-02-20T00:31:32.199Z,0.00
2024-02-20T00:32:32.147Z,0.00
2024-02-20T00:33:32.096Z,0.00
2024-02-20T00:34:32.172Z,0.00
2024-02-20T00:35:32.149Z,0.00
2024-02-20T00:36:32.025Z,0.00
2024-02-20T00:37:32.102Z,0.00
2024-02-20T00:38:32.006Z,0.00
2024-02-20T00:39:32.019Z,0.00
2024-02-20T00:40:32.012Z,0.00
2024-02-20T00:41:32.005Z,0.00
2024-02-20T00:42:31.961Z,0.00
2024-02-20T00:43:32.058Z,0.00
2024-02-20T00:44:31.975Z,0.00
2024-02-20T00:45:31.987Z,0.00
2024-02-20T00:46:32.072Z,0.00
2024-02-20T00:47:31.970Z,0.00
2024-02-20T00:48:31.932Z,0.00
2024-02-20T00:49:32.016Z,0.00
2024-02-20T00:50:31.887Z,0.00
2024-02-20T00:51:32.034Z,0.00
2024-02-20T00:52:31.956Z,0.00
2024-02-20T00:53:31.869Z,0.00
2024-02-20T00:54:31.847Z,0.00
2024-02-20T00:55:31.894Z,0.00
2024-02-20T00:56:31.845Z,0.00
2024-02-20T00:57:31.880Z,0.00
2024-02-20T00:58:31.844Z,0.00
2024-02-20T00:59:31.805Z,0.00
2024-02-20T01:00:31.829Z,0.00
2024-02-20T01:01:31.919Z,0.00
2024-02-20T01:02:31.760Z,0.00
2024-02-20T01:03:31.841Z,0.00
2024-02-20T01:04:31.795Z,0.00
2024-02-20T01:05:31.736Z,0.00
2024-02-20T01:06:31.839Z,0.00
2024-02-20T01:07:31.861Z,0.00
2024-02-20T01:08:31.686Z,0.00
2024-02-20T01:09:31.726Z,0.00
2024-02-20T01:10:31.806Z,0.00
2024-02-20T01:11:31.735Z,0.00
2024-02-20T01:12:31.641Z,0.00
2024-02-20T01:13:31.718Z,0.00
2024-02-20T01:14:31.802Z,0.00
2024-02-20T01:15:31.620Z,0.00
2024-02-20T01:16:31.757Z,0.00
2024-02-20T01:17:31.601Z,0.00
2024-02-20T01:18:31.626Z,0.00
2024-02-20T01:19:31.706Z,0.00
2024-02-20T01:20:31.601Z,0.00
2024-02-20T01:21:31.561Z,0.00
2024-02-20T01:22:31.621Z,0.00
2024-02-20T01:23:31.546Z,0.00
2024-02-20T01:24:31.504Z,0.00
2024-02-20T01:25:31.638Z,0.00
2024-02-20T01:26:31.611Z,0.00
2024-02-20T01:27:31.517Z,0.00
2024-02-20T01:28:31.518Z,0.00
2024-02-20T01:29:31.470Z,0.00
2024-02-20T01:30:31.439Z,0.00
2024-02-20T01:31:31.606Z,0.00
2024-02-20T01:32:31.470Z,0.00
2024-02-20T01:33:31.659Z,0.00
2024-02-20T01:34:31.484Z,0.00
2024-02-20T01:35:31.399Z,0.00
2024-02-20T01:36:31.376Z,0.00
2024-02-20T01:37:31.541Z,0.00
2024-02-20T01:38:31.381Z,0.00
2024-02-20T01:39:31.386Z,0.00
2024-02-20T01:40:31.450Z,0.00
2024-02-20T01:41:31.368Z,0.00
2024-02-20T01:42:31.308Z,0.00
2024-02-20T01:43:31.385Z,0.00
2024-02-20T01:44:31.323Z,0.00
2024-02-20T01:45:31.314Z,0.00
2024-02-20T01:46:31.347Z,0.00
2024-02-20T01:47:31.341Z,0.00
2024-02-20T01:48:31.423Z,0.00
2024-02-20T01:49:31.428Z,0.00
2024-02-20T01:50:31.313Z,0.00
2024-02-20T01:51:31.323Z,0.00
2024-02-20T01:52:31.312Z,0.00
2024-02-20T01:53:31.325Z,0.00
2024-02-20T01:54:31.189Z,0.00
2024-02-20T01:55:31.407Z,0.00
2024-02-20T01:56:31.195Z,0.00
2024-02-20T01:57:31.164Z,0.00
2024-02-20T01:58:31.987Z,0.00
2024-02-20T01:59:31.192Z,0.00
2024-02-20T02:00:31.179Z,0.00
2024-02-20T02:01:31.282Z,0.00
2024-02-20T02:02:31.154Z,0.00
2024-02-20T02:03:31.158Z,0.00
2024-02-20T02:04:31.338Z,0.00
2024-02-20T02:05:31.254Z,0.00
2024-02-20T02:06:31.128Z,0.00
2024-02-20T02:07:31.121Z,0.00
2024-02-20T02:08:31.088Z,0.00
2024-02-20T02:09:31.032Z,0.00
2024-02-20T02:10:31.054Z,0.00
2024-02-20T02:11:31.050Z,0.00
2024-02-20T02:12:30.997Z,0.00
2024-02-20T02:13:31.169Z,0.00
2024-02-20T02:14:31.016Z,0.00
2024-02-20T02:15:30.968Z,0.00
2024-02-20T02:16:31.008Z,0.00
2024-02-20T02:17:30.966Z,0.00
2024-02-20T02:18:31.040Z,0.00
2024-02-20T02:19:31.060Z,0.00
2024-02-20T02:20:30.938Z,0.00
2024-02-20T02:21:30.900Z,0.00
2024-02-20T02:22:31.041Z,0.00
2024-02-20T02:23:30.869Z,0.00
2024-02-20T02:24:30.852Z,0.00
2024-02-20T02:25:30.930Z,0.00
2024-02-20T02:26:30.890Z,0.00
2024-02-20T02:27:30.831Z,0.00
2024-02-20T02:28:31.003Z,0.00
2024-02-20T02:29:30.813Z,0.00
2024-02-20T02:30:30.803Z,0.00
2024-02-20T02:31:30.911Z,0.00
2024-02-20T02:32:30.846Z,0.00
2024-02-20T02:33:30.776Z,0.00
2024-02-20T02:34:30.994Z,0.00
2024-02-20T02:35:30.873Z,0.00
2024-02-20T02:36:30.722Z,0.00
2024-02-20T02:37:30.751Z,0.00
2024-02-20T02:38:30.726Z,0.00
2024-02-20T02:39:30.706Z,0.00
2024-02-20T02:40:30.819Z,0.00
2024-02-20T02:41:30.695Z,0.00
2024-02-20T02:42:30.657Z,0.00
2024-02-20T02:43:30.697Z,0.00
2024-02-20T02:44:30.673Z,0.00
2024-02-20T02:45:30.647Z,0.00
2024-02-20T02:46:30.709Z,0.00
2024-02-20T02:47:30.629Z,0.00
2024-02-20T02:48:30.622Z,0.00
2024-02-20T02:49:30.781Z,0.00
2024-02-20T02:50:30.628Z,0.00
2024-02-20T02:51:30.574Z,0.00
2024-02-20T02:52:30.626Z,0.00
2024-02-20T02:53:30.599Z,0.00
2024-02-20T02:54:30.548Z,0.00
2024-02-20T02:55:30.569Z,0.00
2024-02-20T02:56:30.563Z,0.00
2024-02-20T02:57:30.538Z,0.00
2024-02-20T02:58:30.516Z,0.00
2024-02-20T02:59:30.482Z,0.00
2024-02-20T03:00:30.471Z,0.00
2024-02-20T03:01:30.527Z,0.00
2024-02-20T03:02:30.447Z,0.00
2024-02-20T03:03:30.522Z,0.00
2024-02-20T03:04:30.466Z,0.00
2024-02-20T03:05:30.422Z,0.00
2024-02-20T03:06:30.459Z,0.00
2024-02-20T03:07:30.527Z,0.00
2024-02-20T03:08:30.373Z,0.00
2024-02-20T03:09:30.441Z,0.00
2024-02-20T03:10:30.397Z,0.00
2024-02-20T03:11:30.386Z,0.00
2024-02-20T03:12:32.798Z,0.00
2024-02-20T03:13:30.391Z,0.00
2024-02-20T03:14:30.311Z,0.00
2024-02-20T03:15:30.354Z,0.00
2024-02-20T03:16:30.347Z,0.00
2024-02-20T03:17:30.341Z,0.00
2024-02-20T03:18:30.284Z,0.00
2024-02-20T03:19:30.364Z,0.00
2024-02-20T03:20:30.238Z,0.00
2024-02-20T03:21:30.290Z,0.00
2024-02-20T03:22:30.349Z,0.00
2024-02-20T03:23:30.230Z,0.00
2024-02-20T03:24:30.215Z,0.00
2024-02-20T03:25:30.294Z,0.00
2024-02-20T03:26:30.312Z,0.00
2024-02-20T03:27:30.227Z,0.00
2024-02-20T03:28:30.186Z,0.00
2024-02-20T03:29:30.173Z,0.00
2024-02-20T03:30:30.124Z,0.00
2024-02-20T03:31:30.202Z,0.00
2024-02-20T03:32:30.143Z,0.00
2024-02-20T03:33:30.205Z,0.00
2024-02-20T03:34:30.170Z,0.00
2024-02-20T03:35:30.085Z,0.00
2024-02-20T03:36:30.097Z,0.00
2024-02-20T03:37:30.131Z,0.00
2024-02-20T03:38:30.060Z,0.00
2024-02-20T03:39:30.047Z,0.00
2024-02-20T03:40:30.080Z,0.00
2024-02-20T03:41:30.068Z,0.00
2024-02-20T03:42:30.000Z,0.00
2024-02-20T03:43:30.123Z,0.00
2024-02-20T03:44:30.012Z,0.00
2024-02-20T03:45:29.982Z,0.00
2024-02-20T03:46:29.971Z,0.00
2024-02-20T03:47:30.167Z,0.00
2024-02-20T03:48:30.110Z,0.00
2024-02-20T03:49:30.153Z,0.00
2024-02-20T03:50:29.963Z,0.00
2024-02-20T03:51:29.924Z,0.00
2024-02-20T03:52:30.009Z,0.00
2024-02-20T03:53:29.949Z,0.00
2024-02-20T03:54:29.877Z,0.00
2024-02-20T03:55:29.934Z,0.00
2024-02-20T03:56:29.849Z,0.00
2024-02-20T03:57:29.860Z,0.00
2024-02-20T03:58:29.859Z,0.00
2024-02-20T03:59:29.866Z,0.00
2024-02-20T04:00:29.848Z,0.00
2024-02-20T04:01:29.893Z,0.00
2024-02-20T04:02:29.778Z,0.00
2024-02-20T04:03:29.816Z,0.00
2024-02-20T04:04:29.771Z,0.00
2024-02-20T04:05:29.799Z,0.00
2024-02-20T04:06:29.878Z,0.00
2024-02-20T04:07:29.793Z,0.00
2024-02-20T04:08:29.713Z,0.00
2024-02-20T04:09:29.783Z,0.00
2024-02-20T04:10:29.773Z,0.00
2024-02-20T04:11:29.740Z,0.00
2024-02-20T04:12:29.693Z,0.00
2024-02-20T04:13:29.700Z,0.00
2024-02-20T04:14:29.702Z,0.00
2024-02-20T04:15:29.711Z,0.00
2024-02-20T04:16:29.695Z,0.00
2024-02-20T04:17:29.708Z,0.00
2024-02-20T04:18:29.730Z,0.00
2024-02-20T04:19:29.757Z,0.00
2024-02-20T04:20:29.696Z,0.00
2024-02-20T04:21:29.667Z,0.00
2024-02-20T04:22:29.628Z,0.00
2024-02-20T04:23:29.699Z,0.00
2024-02-20T04:24:29.551Z,0.00
2024-02-20T04:25:29.644Z,0.00
2024-02-20T04:26:29.605Z,0.00
2024-02-20T04:27:29.506Z,0.00
2024-02-20T04:28:29.653Z,0.00
2024-02-20T04:29:29.490Z,0.00
2024-02-20T04:30:29.484Z,0.00
2024-02-20T04:31:29.612Z,0.00
2024-02-20T04:32:29.492Z,0.00
2024-02-20T04:33:29.492Z,0.00
2024-02-20T04:34:29.495Z,0.00
2024-02-20T04:35:29.418Z,0.00
2024-02-20T04:36:29.510Z,0.00
2024-02-20T04:37:29.506Z,0.00
2024-02-20T04:38:29.425Z,0.00
2024-02-20T04:39:29.384Z,0.00
2024-02-20T04:40:29.463Z,0.00
2024-02-20T04:41:29.359Z,0.00
2024-02-20T04:42:29.356Z,0.00
2024-02-20T04:43:29.473Z,0.00
2024-02-20T04:44:29.487Z,0.00
2024-02-20T04:45:29.340Z,0.00
2024-02-20T04:46:29.410Z,0.00
2024-02-20T04:47:29.364Z,0.00
2024-02-20T04:48:29.367Z,0.00
2024-02-20T04:49:29.338Z,0.00
2024-02-20T04:50:29.270Z,0.00
2024-02-20T04:51:29.256Z,0.00
2024-02-20T04:52:29.278Z,0.00
2024-02-20T04:53:29.252Z,0.00
2024-02-20T04:54:29.233Z,0.00
2024-02-20T04:55:29.278Z,0.00
2024-02-20T04:56:29.234Z,0.00
2024-02-20T04:57:29.257Z,0.00
2024-02-20T04:58:29.253Z,0.00
2024-02-20T04:59:29.166Z,0.00
2024-02-20T05:00:29.174Z,0.00
2024-02-20T05:01:29.259Z,0.00
2024-02-20T05:02:29.144Z,0.00
2024-02-20T05:03:29.146Z,0.00
2024-02-20T05:04:29.281Z,0.00
2024-02-20T05:05:29.099Z,0.00
2024-02-20T05:06:29.123Z,0.00
2024-02-20T05:07:29.149Z,0.00
2024-02-20T05:08:29.098Z,0.00
2024-02-20T05:09:29.062Z,0.00
2024-02-20T05:10:29.124Z,0.00
2024-02-20T05:11:29.068Z,0.00
2024-02-20T05:12:29.042Z,0.00
2024-02-20T05:13:29.158Z,0.00
2024-02-20T05:14:29.013Z,0.00
2024-02-20T05:15:28.990Z,0.00
2024-02-20T05:16:29.110Z,0.00
2024-02-20T05:17:29.011Z,0.00
2024-02-20T05:18:29.024Z,0.00
2024-02-20T05:19:29.101Z,0.00
2024-02-20T05:20:35.479Z,0.00
2024-02-20T05:21:28.920Z,0.00
2024-02-20T05:22:29.063Z,0.00
2024-02-20T05:23:28.912Z,0.00
2024-02-20T05:24:28.904Z,0.00
2024-02-20T05:25:28.950Z,0.00
2024-02-20T05:26:28.878Z,0.00
2024-02-20T05:27:28.877Z,0.00
2024-02-20T05:28:28.906Z,0.00
2024-02-20T05:29:28.836Z,0.00
2024-02-20T05:30:28.840Z,0.00
2024-02-20T05:31:28.908Z,0.00
2024-02-20T05:32:28.923Z,0.00
2024-02-20T05:33:28.873Z,0.00
2024-02-20T05:34:28.834Z,0.00
2024-02-20T05:35:28.832Z,0.00
2024-02-20T05:36:28.767Z,0.00
2024-02-20T05:37:28.895Z,0.00
2024-02-20T05:38:28.762Z,0.00
2024-02-20T05:39:28.758Z,0.00
2024-02-20T05:40:28.864Z,0.00
2024-02-20T05:41:28.781Z,0.00
2024-02-20T05:42:28.745Z,0.00
2024-02-20T05:43:28.881Z,0.00
2024-02-20T05:44:28.750Z,0.00
2024-02-20T05:45:28.674Z,0.00
2024-02-20T05:46:28.881Z,0.00
2024-02-20T05:47:28.721Z,0.00
2024-02-20T05:48:28.835Z,0.00
2024-02-20T05:49:28.802Z,0.00
2024-02-20T05:50:28.893Z,0.00
2024-02-20T05:51:28.903Z,0.00
2024-02-20T05:52:28.679Z,0.00
2024-02-20T05:53:28.574Z,0.00
2024-02-20T05:54:28.576Z,0.00
2024-02-20T05:55:28.643Z,0.00
2024-02-20T05:56:28.575Z,0.00
2024-02-20T05:57:28.536Z,0.00
2024-02-20T05:58:28.596Z,0.00
2024-02-20T05:59:28.508Z,0.00
2024-02-20T06:00:28.532Z,0.00
2024-02-20T06:01:28.605Z,0.00
2024-02-20T06:02:30.918Z,0.00
2024-02-20T06:03:28.428Z,2.00
2024-02-20T06:04:28.516Z,1.00
2024-02-20T06:05:28.605Z,1.00
2024-02-20T06:06:28.483Z,1.00
2024-02-20T06:07:28.410Z,2.00
2024-02-20T06:08:28.435Z,3.00
2024-02-20T06:09:28.360Z,2.00
2024-02-20T06:10:28.457Z,2.00
2024-02-20T06:11:28.417Z,3.00
2024-02-20T06:12:28.398Z,8.00
2024-02-20T06:13:28.358Z,6.00
2024-02-20T06:14:28.317Z,6.00
2024-02-20T06:15:28.316Z,6.00
2024-02-20T06:16:28.513Z,8.00
2024-02-20T06:17:28.323Z,7.00
2024-02-20T06:18:28.396Z,8.00
2024-02-20T06:19:28.431Z,11.00
2024-02-20T06:20:28.241Z,14.00
2024-02-20T06:21:28.229Z,24.00
2024-02-20T06:22:28.248Z,23.00
2024-02-20T06:23:28.232Z,24.00
2024-02-20T06:24:28.252Z,32.00
2024-02-20T06:25:28.232Z,41.00
2024-02-20T06:26:28.188Z,55.00
2024-02-20T06:27:28.200Z,70.00
2024-02-20T06:28:28.179Z,70.00
2024-02-20T06:29:28.143Z,105.00
2024-02-20T06:30:28.193Z,104.00
2024-02-20T06:31:28.187Z,106.00
2024-02-20T06:32:29.551Z,136.00
2024-02-20T06:33:28.296Z,147.00
2024-02-20T06:34:28.457Z,153.00
2024-02-20T06:35:28.135Z,165.00
2024-02-20T06:36:28.117Z,175.00
2024-02-20T06:37:28.104Z,186.00
2024-02-20T06:38:28.052Z,200.00
2024-02-20T06:39:28.027Z,212.00
2024-02-20T06:40:28.102Z,219.00
2024-02-20T06:41:28.012Z,244.00
2024-02-20T06:42:28.083Z,269.00
2024-02-20T06:43:28.039Z,297.00
2024-02-20T06:44:28.004Z,301.00
2024-02-20T06:45:27.999Z,312.00
2024-02-20T06:46:28.034Z,304.00
2024-02-20T06:47:27.999Z,286.00
2024-02-20T06:48:28.056Z,393.00
2024-02-20T06:49:28.163Z,386.00
2024-02-20T06:50:27.939Z,388.00
2024-02-20T06:51:27.900Z,404.00
2024-02-20T06:52:27.940Z,422.00
2024-02-20T06:53:27.937Z,427.00
2024-02-20T06:54:27.926Z,444.00
2024-02-20T06:55:27.940Z,475.00
2024-02-20T06:56:27.856Z,504.00
2024-02-20T06:57:27.886Z,510.00
2024-02-20T06:58:27.932Z,495.00
2024-02-20T06:59:27.816Z,561.00
2024-02-20T07:00:27.981Z,568.00
2024-02-20T07:01:27.922Z,579.00
2024-02-20T07:02:27.854Z,579.00
2024-02-20T07:03:27.829Z,591.00
2024-02-20T07:04:27.970Z,624.00
2024-02-20T07:05:28.002Z,673.00
2024-02-20T07:06:27.940Z,708.00
2024-02-20T07:07:27.743Z,741.00
2024-02-20T07:08:27.751Z,763.00
2024-02-20T07:09:27.752Z,774.00
2024-02-20T07:10:27.807Z,780.00
2024-02-20T07:11:28.159Z,799.00
2024-02-20T07:12:27.725Z,817.00
2024-02-20T07:13:27.717Z,828.00
2024-02-20T07:14:27.689Z,804.00
2024-02-20T07:15:27.649Z,786.00
2024-02-20T07:16:27.669Z,789.00
2024-02-20T07:17:28.562Z,777.00
2024-02-20T07:18:27.736Z,765.00
2024-02-20T07:19:27.684Z,784.00
2024-02-20T07:20:27.770Z,850.00
2024-02-20T07:21:27.593Z,850.00
2024-02-20T07:22:27.592Z,852.00
2024-02-20T07:23:27.556Z,833.00
2024-02-20T07:24:27.590Z,825.00
2024-02-20T07:25:27.582Z,945.00
2024-02-20T07:26:27.533Z,1007.00
2024-02-20T07:27:27.511Z,1144.00
2024-02-20T07:28:27.558Z,1090.00
2024-02-20T07:29:27.506Z,1082.00
2024-02-20T07:30:27.555Z,1002.00
2024-02-20T07:31:27.512Z,1135.00
2024-02-20T07:32:27.528Z,1169.00
2024-02-20T07:33:34.975Z,1187.00
2024-02-20T07:34:27.610Z,1217.00
2024-02-20T07:35:27.642Z,1175.00
2024-02-20T07:36:27.481Z,1155.00
2024-02-20T07:37:27.438Z,1131.00
2024-02-20T07:38:27.424Z,1142.00
2024-02-20T07:39:27.406Z,1177.00
2024-02-20T07:40:27.460Z,1221.00
2024-02-20T07:41:27.374Z,1284.00
2024-02-20T07:42:27.429Z,1324.00
2024-02-20T07:43:27.388Z,1467.00
2024-02-20T07:44:27.344Z,1474.00
2024-02-20T07:45:27.322Z,1597.00
2024-02-20T07:46:27.352Z,1650.00
2024-02-20T07:47:27.382Z,1717.00
2024-02-20T07:48:27.389Z,1803.00
2024-02-20T07:49:27.478Z,1873.00
2024-02-20T07:50:27.502Z,1969.00
2024-02-20T07:51:27.253Z,2021.00
2024-02-20T07:52:27.281Z,1877.00
2024-02-20T07:53:27.242Z,1824.00
2024-02-20T07:54:27.237Z,1844.00
2024-02-20T07:55:27.329Z,1864.00
2024-02-20T07:56:27.219Z,1894.00
2024-02-20T07:57:27.293Z,1919.00
2024-02-20T07:58:34.354Z,1950.00
2024-02-20T07:59:27.177Z,1996.00
2024-02-20T08:00:27.196Z,2024.00
2024-02-20T08:01:27.357Z,2032.00
2024-02-20T08:02:27.302Z,2029.00
2024-02-20T08:03:27.130Z,2013.00
2024-02-20T08:04:27.275Z,2021.00
2024-02-20T08:05:27.357Z,2041.00
2024-02-20T08:06:27.163Z,2037.00
2024-02-20T08:07:27.143Z,2061.00
2024-02-20T08:08:27.090Z,2056.00
2024-02-20T08:09:27.077Z,2009.00
2024-02-20T08:10:27.114Z,2002.00
2024-02-20T08:11:27.131Z,1978.00
2024-02-20T08:12:27.040Z,1940.00
2024-02-20T08:13:27.094Z,1946.00
2024-02-20T08:14:27.056Z,1947.00
2024-02-20T08:15:26.998Z,1926.00
2024-02-20T08:16:27.063Z,1886.00
2024-02-20T08:17:27.027Z,1848.00
2024-02-20T08:18:27.040Z,1851.00
2024-02-20T08:19:27.146Z,1881.00
2024-02-20T08:20:27.050Z,1937.00
2024-02-20T08:21:26.923Z,1996.00
2024-02-20T08:22:26.990Z,2014.00
2024-02-20T08:23:26.908Z,2047.00
2024-02-20T08:24:26.971Z,2058.00
2024-02-20T08:25:26.930Z,2087.00
2024-02-20T08:26:26.905Z,2109.00
2024-02-20T08:27:26.886Z,2150.00
2024-02-20T08:28:26.918Z,2167.00
2024-02-20T08:29:26.854Z,2204.00
2024-02-20T08:30:26.851Z,2258.00
2024-02-20T08:31:26.934Z,2282.00
2024-02-20T08:32:26.818Z,2320.00
2024-02-20T08:33:26.910Z,2355.00
2024-02-20T08:34:26.826Z,2390.00
2024-02-20T08:35:26.856Z,2416.00
2024-02-20T08:36:26.794Z,2427.00
2024-02-20T08:37:26.854Z,2453.00
2024-02-20T08:38:26.748Z,2473.00
2024-02-20T08:39:26.849Z,2534.00
2024-02-20T08:40:26.760Z,2601.00
2024-02-20T08:41:26.725Z,2669.00
2024-02-20T08:42:26.719Z,2737.00
2024-02-20T08:43:26.782Z,2784.00
2024-02-20T08:44:26.773Z,2844.00
2024-02-20T08:45:26.730Z,2890.00
2024-02-20T08:46:26.714Z,2952.00
2024-02-20T08:47:26.699Z,3074.00
2024-02-20T08:48:26.736Z,3170.00
2024-02-20T08:49:31.605Z,3277.00
2024-02-20T08:50:26.667Z,3325.00
2024-02-20T08:51:26.633Z,3306.00
2024-02-20T08:52:26.641Z,3200.00
2024-02-20T08:53:26.591Z,3124.00
2024-02-20T08:54:26.581Z,3073.00
2024-02-20T08:55:26.640Z,3058.00
2024-02-20T08:56:26.548Z,3066.00
2024-02-20T08:57:26.590Z,3110.00
2024-02-20T08:58:26.716Z,3247.00
2024-02-20T08:59:26.570Z,3371.00
2024-02-20T09:00:26.501Z,3411.00
2024-02-20T09:01:26.812Z,3442.00
2024-02-20T09:02:26.653Z,3489.00
2024-02-20T09:03:26.485Z,3570.00
2024-02-20T09:04:26.578Z,3642.00
2024-02-20T09:05:26.621Z,3651.00
2024-02-20T09:06:26.466Z,3577.00
2024-02-20T09:07:26.544Z,3463.00
2024-02-20T09:08:26.424Z,3324.00
2024-02-20T09:09:26.422Z,3299.00
2024-02-20T09:10:26.445Z,3423.00
2024-02-20T09:11:26.513Z,3610.00
2024-02-20T09:12:26.391Z,3807.00
2024-02-20T09:13:26.399Z,3955.00
2024-02-20T09:14:26.367Z,4067.00
2024-02-20T09:15:26.383Z,4176.00
2024-02-20T09:16:26.448Z,4293.00
2024-02-20T09:17:26.328Z,4408.00
2024-02-20T09:18:26.362Z,4490.00
2024-02-20T09:19:26.457Z,4526.00
2024-02-20T09:20:26.383Z,4487.00
2024-02-20T09:21:26.289Z,4431.00
2024-02-20T09:22:26.332Z,4331.00
2024-02-20T09:23:26.271Z,4281.00
2024-02-20T09:24:26.239Z,4197.00
2024-02-20T09:25:26.272Z,4206.00
2024-02-20T09:26:26.219Z,4186.00
2024-02-20T09:27:26.233Z,4206.00
2024-02-20T09:28:26.262Z,4367.00
2024-02-20T09:29:26.219Z,4581.00
2024-02-20T09:30:26.196Z,4604.00
2024-02-20T09:31:26.214Z,4697.00
2024-02-20T09:32:26.178Z,4812.00
2024-02-20T09:33:26.331Z,4603.00
2024-02-20T09:34:26.281Z,4548.00
2024-02-20T09:35:26.151Z,4437.00
2024-02-20T09:36:26.143Z,4613.00
2024-02-20T09:37:26.167Z,4740.00
2024-02-20T09:38:26.112Z,4674.00
2024-02-20T09:39:26.123Z,4504.00
2024-02-20T09:40:26.101Z,4527.00
2024-02-20T09:41:26.081Z,4896.00
2024-02-20T09:42:26.104Z,5026.00
2024-02-20T09:43:26.173Z,4973.00
2024-02-20T09:44:26.026Z,4866.00
2024-02-20T09:45:26.072Z,4630.00
2024-02-20T09:46:26.020Z,5074.00
2024-02-20T09:47:26.017Z,5800.00
2024-02-20T09:48:26.171Z,6443.00
2024-02-20T09:49:26.086Z,5996.00
2024-02-20T09:50:26.429Z,5642.00
2024-02-20T09:51:26.028Z,6586.00
2024-02-20T09:52:25.984Z,6337.00
2024-02-20T09:53:25.943Z,6865.00
2024-02-20T09:54:25.921Z,6606.00
2024-02-20T09:55:26.406Z,6607.00
2024-02-20T09:56:25.933Z,6600.00
2024-02-20T09:57:25.925Z,6638.00
2024-02-20T09:58:27.332Z,6415.00
2024-02-20T09:59:25.886Z,6252.00
2024-02-20T10:00:25.887Z,6138.00
2024-02-20T10:01:25.920Z,6133.00
2024-02-20T10:02:25.831Z,6046.00
2024-02-20T10:03:25.867Z,5934.00
2024-02-20T10:04:25.877Z,5806.00
2024-02-20T10:05:25.977Z,5674.00
2024-02-20T10:06:25.805Z,5596.00
2024-02-20T10:07:25.806Z,5471.00
2024-02-20T10:08:25.780Z,5359.00
2024-02-20T10:09:25.817Z,5062.00
2024-02-20T10:10:25.808Z,4844.00
2024-02-20T10:11:25.809Z,4891.00
2024-02-20T10:12:25.817Z,5013.00
2024-02-20T10:13:25.739Z,5089.00
2024-02-20T10:14:25.729Z,5123.00
2024-02-20T10:15:25.748Z,5100.00
2024-02-20T10:16:25.752Z,5094.00
2024-02-20T10:17:25.776Z,5076.00
2024-02-20T10:18:25.667Z,5248.00
2024-02-20T10:19:25.743Z,5287.00
2024-02-20T10:20:25.851Z,5306.00
2024-02-20T10:21:25.692Z,5176.00
2024-02-20T10:22:25.950Z,5233.00
2024-02-20T10:23:25.619Z,5203.00
2024-02-20T10:24:32.051Z,5204.00
2024-02-20T10:25:25.656Z,5248.00
2024-02-20T10:26:25.610Z,5316.00
2024-02-20T10:27:25.588Z,5224.00
2024-02-20T10:28:25.643Z,5317.00
2024-02-20T10:29:25.570Z,5562.00
2024-02-20T10:30:25.534Z,5768.00
2024-02-20T10:31:25.574Z,5934.00
2024-02-20T10:32:25.677Z,5922.00
2024-02-20T10:33:25.698Z,5897.00
2024-02-20T10:34:25.630Z,6057.00
2024-02-20T10:35:25.636Z,5800.00
2024-02-20T10:36:25.474Z,5777.00
2024-02-20T10:37:25.565Z,6185.00
2024-02-20T10:38:25.497Z,6779.00
2024-02-20T10:39:25.490Z,6749.00
2024-02-20T10:40:27.981Z,6628.00
2024-02-20T10:41:25.453Z,6744.00
2024-02-20T10:42:25.428Z,7623.00
2024-02-20T10:43:25.449Z,6564.00
2024-02-20T10:44:25.464Z,6150.00
2024-02-20T10:45:25.391Z,6505.00
2024-02-20T10:46:25.387Z,6809.00
2024-02-20T10:47:25.484Z,6393.00
2024-02-20T10:48:25.448Z,9661.00
2024-02-20T10:49:26.162Z,9582.00
2024-02-20T10:50:25.640Z,10332.00
2024-02-20T10:51:25.340Z,8920.00
2024-02-20T10:52:25.305Z,8130.00
2024-02-20T10:53:25.305Z,10138.00
2024-02-20T10:54:29.531Z,9399.00
2024-02-20T10:55:32.407Z,9729.00
2024-02-20T10:56:25.341Z,10555.00
2024-02-20T10:57:25.343Z,11083.00
2024-02-20T10:58:25.285Z,9526.00
2024-02-20T10:59:25.245Z,9806.00
2024-02-20T11:00:25.224Z,10258.00
2024-02-20T11:01:25.467Z,8428.00
2024-02-20T11:02:25.245Z,9557.00
2024-02-20T11:03:25.194Z,14062.00
2024-02-20T11:04:25.224Z,9083.00
2024-02-20T11:05:25.483Z,9039.00
2024-02-20T11:06:25.314Z,9930.00
2024-02-20T11:07:25.260Z,8941.00
2024-02-20T11:08:25.208Z,8857.00
2024-02-20T11:09:25.219Z,8279.00
2024-02-20T11:10:25.138Z,8180.00
2024-02-20T11:11:25.281Z,8375.00
2024-02-20T11:12:25.075Z,8392.00
2024-02-20T11:13:25.094Z,7979.00
2024-02-20T11:14:25.075Z,8028.00
2024-02-20T11:15:25.072Z,8280.00
2024-02-20T11:16:26.693Z,8459.00
2024-02-20T11:17:29.491Z,8803.00
2024-02-20T11:18:25.168Z,8513.00
2024-02-20T11:19:25.222Z,8448.00
2024-02-20T11:21:15.827Z,7921.00
2024-02-20T11:22:16.826Z,7780.00
2024-02-20T11:23:16.824Z,7911.00
2024-02-20T11:24:17.875Z,8026.00
2024-02-20T11:25:16.828Z,8464.00
2024-02-20T11:26:16.830Z,7709.00
2024-02-20T11:27:16.753Z,7900.00
2024-02-20T11:28:17.869Z,8353.00
2024-02-20T11:29:16.779Z,7928.00
2024-02-20T11:30:16.719Z,8095.00
2024-02-20T11:31:16.707Z,9580.00
2024-02-20T11:32:16.706Z,8768.00
2024-02-20T11:33:17.265Z,7862.00
2024-02-20T11:34:16.831Z,7221.00
2024-02-20T11:35:16.827Z,7267.00
2024-02-20T11:36:16.636Z,6827.00
2024-02-20T11:37:16.687Z,6363.00
2024-02-20T11:38:16.661Z,7578.00
2024-02-20T11:39:16.635Z,7841.00
2024-02-20T11:40:16.620Z,7899.00
2024-02-20T11:41:16.626Z,7708.00
2024-02-20T11:42:16.594Z,7034.00
2024-02-20T11:43:16.618Z,10898.00
2024-02-20T11:44:16.557Z,9396.00
2024-02-20T11:45:16.558Z,9038.00
2024-02-20T11:46:16.589Z,13218.00
2024-02-20T11:47:16.545Z,9880.00
2024-02-20T11:48:16.596Z,8135.00
2024-02-20T11:49:16.547Z,8043.00
2024-02-20T11:50:16.530Z,9654.00
2024-02-20T11:51:16.500Z,8991.00
2024-02-20T11:52:16.668Z,9377.00
2024-02-20T11:53:16.929Z,5708.00
2024-02-20T11:54:16.447Z,6065.00
2024-02-20T11:55:16.487Z,5470.00
2024-02-20T11:56:16.434Z,4715.00
2024-02-20T11:57:16.444Z,4034.00
2024-02-20T11:58:16.467Z,4588.00
2024-02-20T11:59:16.416Z,5068.00
2024-02-20T12:00:16.376Z,5314.00
2024-02-20T12:01:16.616Z,5541.00
2024-02-20T12:02:16.403Z,5132.00
2024-02-20T12:03:16.379Z,5014.00
2024-02-20T12:04:16.483Z,5080.00
2024-02-20T12:05:16.416Z,5175.00
2024-02-20T12:06:16.332Z,5395.00
2024-02-20T12:07:16.385Z,5577.00
2024-02-20T12:08:16.508Z,5629.00
2024-02-20T12:09:16.308Z,5898.00
2024-02-20T12:10:16.324Z,6236.00
2024-02-20T12:11:16.354Z,6393.00
2024-02-20T12:12:16.256Z,6481.00
2024-02-20T12:13:16.260Z,6519.00
2024-02-20T12:14:16.269Z,6986.00
2024-02-20T12:15:16.256Z,7077.00
2024-02-20T12:16:16.233Z,7389.00
2024-02-20T12:17:16.208Z,7366.00
2024-02-20T12:18:16.281Z,7506.00
2024-02-20T12:19:25.640Z,7228.00
2024-02-20T12:20:16.327Z,7599.00
2024-02-20T12:21:16.185Z,8349.00
2024-02-20T12:22:16.190Z,7486.00
2024-02-20T12:23:16.161Z,7040.00
2024-02-20T12:24:16.119Z,7394.00
2024-02-20T12:25:16.203Z,6874.00
2024-02-20T12:26:16.127Z,6583.00
2024-02-20T12:27:16.109Z,6429.00
2024-02-20T12:28:16.126Z,6376.00
2024-02-20T12:29:16.082Z,5797.00
2024-02-20T12:30:16.067Z,5934.00
2024-02-20T12:31:16.077Z,6383.00
2024-02-20T12:32:16.066Z,6505.00
2024-02-20T12:33:16.277Z,6213.00
2024-02-20T12:34:16.160Z,6325.00
2024-02-20T12:35:16.041Z,6152.00
2024-02-20T12:36:16.001Z,6213.00
2024-02-20T12:37:16.020Z,6266.00
2024-02-20T12:38:15.985Z,6251.00
2024-02-20T12:39:15.974Z,6289.00
2024-02-20T12:40:16.017Z,6297.00
2024-02-20T12:41:15.973Z,6283.00
2024-02-20T12:42:15.932Z,6337.00
2024-02-20T12:43:15.952Z,6264.00